الصفحة الرئيسية
METAR-TAF:

METAR-TAF

مطار :

سابورو, اليابان

دائرة عرض: 43-07N, خط طول: 141-23E, ارتفاع: 8 متر

مراقبة الطقس الحالي

تاريخ ووقت الإصدار 12 دقيقة قبل الساعة 21:00UTC
ريح 3 عقدة من الشرق/الشمال الشرقي
درجة الحرارة 13°درجة مئوية
الرطوبة 82%
ضغط 1015 hPa
الرؤية 10 كم أو أكثر
غيوم قليلة على ارتفاع 3000 قدم

METAR: RJCO 292100Z 06003KT 9999 FEW030 13/10 Q1015

زمن: 06:12 (21:12 UTC)


TAF: مفقودة

أرصاد الطقس والتوقعات من أكثر من 4000 مطار (تقارير الطقس للمطار METAR والتنبؤ بالطقس بالمطارTAF).

المحطات المتاحة هي النقط الصفراء والحمراء على الخريطة.

حرك المؤشر فوق النقطة لمعرفة اسم المحطة.

ثم انقر لمعرفة أرصاد وتوقعات الطقس.

لتغيير الخارطة: اضغط على الأزرار الخضراء مع رمز الصليب الأسود للتكبير. على الزر الأخضر مع شرطة للتصغير، أو على الأسهم الخضراء للخرائط المجاورة.


METAR-TAF: